createdAt,value
2018-05-03T00:00:50.713Z,54.3
2018-05-03T00:01:52.379Z,52.4
2018-05-03T00:02:54.000Z,53.4
2018-05-03T00:03:55.721Z,52.8
2018-05-03T00:04:57.260Z,51.2
2018-05-03T00:05:58.915Z,48.9
2018-05-03T00:07:00.565Z,47.3
2018-05-03T00:08:02.209Z,45.4
2018-05-03T00:09:03.856Z,44.0
2018-05-03T00:10:05.506Z,41.8
2018-05-03T00:11:07.157Z,42.0
2018-05-03T00:12:08.806Z,41.0
2018-05-03T00:13:10.455Z,39.9
2018-05-03T00:14:12.105Z,39.2
2018-05-03T00:15:13.746Z,40.1
2018-05-03T00:16:15.390Z,40.5
2018-05-03T00:17:17.050Z,40.9
2018-05-03T00:18:18.769Z,39.5
2018-05-03T00:19:20.333Z,38.8
2018-05-03T00:20:21.978Z,38.4
2018-05-03T00:21:23.622Z,38.5
2018-05-03T00:22:25.269Z,38.6
2018-05-03T00:23:26.922Z,37.4
2018-05-03T00:24:28.580Z,37.1
2018-05-03T00:25:30.230Z,35.2
2018-05-03T00:26:31.874Z,36.6
2018-05-03T00:27:33.532Z,38.6
2018-05-03T00:28:35.183Z,41.0
2018-05-03T00:29:36.828Z,42.5
2018-05-03T00:30:38.472Z,43.4
2018-05-03T00:31:40.123Z,45.3
2018-05-03T00:32:41.764Z,46.1
2018-05-03T00:33:43.413Z,46.1
2018-05-03T00:34:45.060Z,46.1
2018-05-03T00:35:46.727Z,46.7
2018-05-03T00:36:48.389Z,47.0
2018-05-03T00:37:50.035Z,47.8
2018-05-03T00:38:51.686Z,48.1
2018-05-03T00:39:53.322Z,47.9
2018-05-03T00:40:54.985Z,47.0
2018-05-03T00:41:56.632Z,47.3
2018-05-03T00:42:58.275Z,45.8
2018-05-03T00:43:59.922Z,45.4
2018-05-03T00:45:01.565Z,45.1
2018-05-03T00:46:03.218Z,43.6
2018-05-03T00:47:04.867Z,43.6
2018-05-03T00:48:06.523Z,43.5
2018-05-03T00:49:08.167Z,43.7
2018-05-03T00:50:09.834Z,44.2
2018-05-03T00:51:11.481Z,44.9
2018-05-03T00:52:13.127Z,44.3
2018-05-03T00:53:14.768Z,43.3
2018-05-03T00:54:16.411Z,42.0
2018-05-03T00:55:18.070Z,41.5
2018-05-03T00:56:19.724Z,40.8
2018-05-03T00:57:21.369Z,40.3
2018-05-03T00:58:23.022Z,39.8
2018-05-03T00:59:24.686Z,39.3
2018-05-03T01:00:26.321Z,39.0
2018-05-03T01:01:27.980Z,38.7
2018-05-03T01:02:29.635Z,38.5
2018-05-03T01:03:31.280Z,39.1
2018-05-03T01:04:32.925Z,38.8
2018-05-03T01:05:34.571Z,38.9
2018-05-03T01:06:36.224Z,38.4
2018-05-03T01:07:37.867Z,38.3
2018-05-03T01:08:39.518Z,38.2
2018-05-03T01:09:41.175Z,38.3
2018-05-03T01:10:42.829Z,37.3
2018-05-03T01:11:44.490Z,36.0
2018-05-03T01:12:46.162Z,37.1
2018-05-03T01:13:47.819Z,35.7
2018-05-03T01:14:49.453Z,34.7
2018-05-03T01:15:51.103Z,34.7
2018-05-03T01:16:52.767Z,34.1
2018-05-03T01:17:54.440Z,32.8
2018-05-03T01:18:56.085Z,32.1
2018-05-03T01:19:57.731Z,31.5
2018-05-03T01:20:59.378Z,31.8
2018-05-03T01:22:01.028Z,29.8
2018-05-03T01:23:02.676Z,28.8
2018-05-03T01:24:04.322Z,28.8
2018-05-03T01:25:05.977Z,28.4
2018-05-03T01:26:07.621Z,27.8
2018-05-03T01:27:09.263Z,28.0
2018-05-03T01:28:10.922Z,27.2
2018-05-03T01:29:12.565Z,26.6
2018-05-03T01:30:14.210Z,25.9
2018-05-03T01:31:15.858Z,25.4
2018-05-03T01:32:17.498Z,25.3
2018-05-03T01:33:19.140Z,23.2
2018-05-03T01:34:20.782Z,21.7
2018-05-03T01:35:22.430Z,21.7
2018-05-03T01:36:24.090Z,21.3
2018-05-03T01:37:25.739Z,20.8
2018-05-03T01:38:27.391Z,21.5
2018-05-03T01:39:29.037Z,21.0
2018-05-03T01:40:30.685Z,20.8
2018-05-03T01:41:32.337Z,20.2
2018-05-03T01:42:33.986Z,19.3
2018-05-03T01:43:35.631Z,19.3
2018-05-03T01:44:37.272Z,18.2
2018-05-03T01:45:38.936Z,18.1
2018-05-03T01:46:40.585Z,18.8
2018-05-03T01:47:42.235Z,18.2
2018-05-03T01:48:43.887Z,18.8
2018-05-03T01:49:45.525Z,18.1
2018-05-03T01:50:47.195Z,16.6
2018-05-03T01:51:48.835Z,15.9
2018-05-03T01:52:50.489Z,15.8
2018-05-03T01:53:52.140Z,15.5
2018-05-03T01:54:53.782Z,15.8
2018-05-03T01:55:55.440Z,15.7
2018-05-03T02:02:01.401Z,16.2
2018-05-03T02:03:03.050Z,16.5
2018-05-03T02:04:55.002Z,16.5
2018-05-03T02:05:56.645Z,16.3
2018-05-03T02:06:58.292Z,16.9
2018-05-03T02:07:59.935Z,17.6
2018-05-03T02:09:01.597Z,18.1
2018-05-03T02:10:03.244Z,17.6
2018-05-03T02:11:04.887Z,17.7
2018-05-03T02:12:06.532Z,18.1
2018-05-03T02:13:08.180Z,18.3
2018-05-03T02:14:09.836Z,17.6
2018-05-03T02:15:11.469Z,17.5
2018-05-03T02:16:13.114Z,16.9
2018-05-03T02:17:14.765Z,16.5
2018-05-03T02:18:16.410Z,16.7
2018-05-03T02:19:18.052Z,15.8
2018-05-03T02:20:19.695Z,16.0
2018-05-03T02:21:21.354Z,15.7
2018-05-03T02:22:22.994Z,15.2
2018-05-03T02:23:24.640Z,14.5
2018-05-03T02:24:26.286Z,14.8
2018-05-03T02:25:27.931Z,13.4
2018-05-03T02:26:29.574Z,13.6
2018-05-03T02:27:31.220Z,13.8
2018-05-03T02:28:32.866Z,14.6
2018-05-03T02:29:34.510Z,15.3
2018-05-03T02:30:36.152Z,14.3
2018-05-03T02:31:37.803Z,15.1
2018-05-03T02:32:39.446Z,15.0
2018-05-03T02:33:41.090Z,14.7
2018-05-03T02:34:42.738Z,14.0
2018-05-03T02:35:44.380Z,14.1
2018-05-03T02:36:46.062Z,13.5
2018-05-03T02:37:47.689Z,14.1
2018-05-03T02:38:49.329Z,13.7
2018-05-03T02:39:50.973Z,13.1
2018-05-03T02:40:52.625Z,13.2
2018-05-03T02:41:54.270Z,12.6
2018-05-03T02:42:55.922Z,13.4
2018-05-03T02:43:57.571Z,13.7
2018-05-03T02:44:59.223Z,14.7
2018-05-03T02:46:00.876Z,14.4
2018-05-03T02:47:02.530Z,13.6
2018-05-03T02:48:04.159Z,13.6
2018-05-03T02:49:05.801Z,12.7
2018-05-03T02:50:07.458Z,12.2
2018-05-03T02:51:09.097Z,11.9
2018-05-03T02:52:10.744Z,11.3
2018-05-03T02:53:12.393Z,9.4
2018-05-03T02:54:14.034Z,10.0
2018-05-03T02:55:15.676Z,9.6
2018-05-03T02:56:17.327Z,10.0
2018-05-03T02:57:18.973Z,10.9
2018-05-03T02:58:20.613Z,9.8
2018-05-03T02:59:22.256Z,10.2
2018-05-03T03:00:23.909Z,9.9
2018-05-03T03:01:25.556Z,9.8
2018-05-03T03:02:27.221Z,9.0
2018-05-03T03:03:28.892Z,7.2
2018-05-03T03:04:30.488Z,6.1
2018-05-03T03:05:32.135Z,6.6
2018-05-03T03:06:33.775Z,6.4
2018-05-03T03:07:35.432Z,7.1
2018-05-03T03:08:37.076Z,7.5
2018-05-03T03:09:38.789Z,8.2
2018-05-03T03:10:40.381Z,7.7
2018-05-03T03:11:42.028Z,6.3
2018-05-03T03:12:43.667Z,5.8
2018-05-03T03:13:45.321Z,6.6
2018-05-03T03:14:47.001Z,6.9
2018-05-03T03:15:48.651Z,7.1
2018-05-03T03:16:50.294Z,6.9
2018-05-03T03:17:51.944Z,7.0
2018-05-03T03:18:53.590Z,6.8
2018-05-03T03:19:55.243Z,6.8
2018-05-03T03:20:56.891Z,7.4
2018-05-03T03:21:58.568Z,7.6
2018-05-03T03:23:00.178Z,7.7
2018-05-03T03:24:01.835Z,6.5
2018-05-03T03:25:03.472Z,6.5
2018-05-03T03:26:05.131Z,6.5
2018-05-03T03:27:06.764Z,6.1
2018-05-03T03:28:08.409Z,5.9
2018-05-03T03:29:10.054Z,5.3
2018-05-03T03:30:11.719Z,4.6
2018-05-03T03:31:13.371Z,4.7
2018-05-03T03:32:15.014Z,4.9
2018-05-03T03:33:16.658Z,3.6
2018-05-03T03:34:18.302Z,3.5
2018-05-03T03:35:19.953Z,2.7
2018-05-03T03:36:21.600Z,2.6
2018-05-03T03:37:23.252Z,2.5
2018-05-03T03:38:24.891Z,2.1
2018-05-03T03:39:26.537Z,1.6
2018-05-03T03:40:28.226Z,2.5
2018-05-03T03:41:29.875Z,2.4
2018-05-03T03:42:31.524Z,1.8
2018-05-03T03:43:33.174Z,2.3
2018-05-03T03:44:34.826Z,2.3
2018-05-03T03:45:36.468Z,1.2
2018-05-03T03:46:38.120Z,1.8
2018-05-03T03:47:39.761Z,1.9
2018-05-03T03:48:41.422Z,2.5
2018-05-03T03:49:43.074Z,2.4
2018-05-03T03:50:44.724Z,2.4
2018-05-03T03:51:46.470Z,1.4
2018-05-03T03:52:48.073Z,1.4
2018-05-03T03:53:49.738Z,2.0
2018-05-03T03:54:51.382Z,2.2
2018-05-03T03:55:53.032Z,2.4
2018-05-03T03:56:54.681Z,2.5
2018-05-03T03:57:56.333Z,2.2
2018-05-03T03:58:57.986Z,1.9
2018-05-03T03:59:59.640Z,1.8
2018-05-03T04:01:01.272Z,0.9
2018-05-03T04:02:02.923Z,0.0
2018-05-03T04:03:04.567Z,0.0
2018-05-03T04:04:06.222Z,0.0
2018-05-03T04:05:07.920Z,0.0
2018-05-03T04:06:09.566Z,0.0
2018-05-03T04:07:12.763Z,0.0
2018-05-03T04:08:14.415Z,0.0
2018-05-03T04:09:16.078Z,0.0
2018-05-03T04:10:17.729Z,0.0
2018-05-03T04:11:19.378Z,0.0
2018-05-03T04:12:21.027Z,0.0
2018-05-03T04:13:22.679Z,0.0
2018-05-03T04:14:24.330Z,0.0
2018-05-03T04:15:25.984Z,0.0
2018-05-03T04:16:27.640Z,0.0
2018-05-03T04:17:29.399Z,0.0
2018-05-03T04:18:31.043Z,0.0
2018-05-03T04:19:32.706Z,0.0
2018-05-03T04:20:34.362Z,0.0
2018-05-03T04:21:36.014Z,0.0
2018-05-03T04:22:37.662Z,0.1
2018-05-03T04:23:39.317Z,0.4
2018-05-03T04:24:40.960Z,1.3
2018-05-03T04:25:42.609Z,2.5
2018-05-03T04:26:44.260Z,2.5
2018-05-03T04:27:45.912Z,2.5
2018-05-03T04:28:47.570Z,2.3
2018-05-03T04:29:49.249Z,2.5
2018-05-03T04:30:50.906Z,2.8
2018-05-03T04:31:52.602Z,4.5
2018-05-03T04:32:54.261Z,4.9
2018-05-03T04:33:55.928Z,4.4
2018-05-03T04:34:57.583Z,5.0
2018-05-03T04:35:59.236Z,5.2
2018-05-03T04:37:00.888Z,6.0
2018-05-03T04:38:02.549Z,5.9
2018-05-03T04:39:04.192Z,6.1
2018-05-03T04:40:05.848Z,5.8
2018-05-03T04:41:07.506Z,5.8
2018-05-03T04:42:09.161Z,8.1
2018-05-03T04:43:10.824Z,7.2
2018-05-03T04:44:12.458Z,8.4
2018-05-03T04:45:14.111Z,11.1
2018-05-03T04:46:15.775Z,11.4
2018-05-03T04:47:17.427Z,10.0
2018-05-03T04:48:19.095Z,10.1
2018-05-03T04:49:20.762Z,10.6
2018-05-03T04:50:22.410Z,8.9
2018-05-03T04:51:24.062Z,9.7
2018-05-03T04:52:25.724Z,13.7
2018-05-03T04:53:27.379Z,12.9
2018-05-03T04:54:29.029Z,11.9
2018-05-03T04:55:30.683Z,14.2
2018-05-03T04:56:32.343Z,22.4
2018-05-03T04:57:34.018Z,27.4
2018-05-03T04:58:35.672Z,27.0
2018-05-03T04:59:37.382Z,29.9
2018-05-03T05:00:38.992Z,28.1
2018-05-03T05:01:40.645Z,28.5
2018-05-03T05:02:42.421Z,24.9
2018-05-03T05:03:44.075Z,28.3
2018-05-03T05:04:45.851Z,32.1
2018-05-03T05:05:47.472Z,37.5
2018-05-03T05:06:49.157Z,39.8
2018-05-03T05:07:50.811Z,41.6
2018-05-03T05:08:52.466Z,42.8
2018-05-03T05:09:54.116Z,39.4
2018-05-03T05:10:55.768Z,41.6
2018-05-03T05:11:57.425Z,40.1
2018-05-03T05:12:59.072Z,40.8
2018-05-03T05:14:00.731Z,43.9
2018-05-03T05:15:02.384Z,48.4
2018-05-03T05:16:04.041Z,47.9
2018-05-03T05:17:05.693Z,47.7
2018-05-03T05:18:07.360Z,50.5
2018-05-03T05:19:09.013Z,51.1
2018-05-03T05:20:10.665Z,49.1
2018-05-03T05:21:12.325Z,53.0
2018-05-03T05:22:13.968Z,55.1
2018-05-03T05:23:15.628Z,55.0
2018-05-03T05:24:17.320Z,55.7
2018-05-03T05:25:18.938Z,56.5
2018-05-03T05:26:20.589Z,55.3
2018-05-03T05:27:22.243Z,56.2
2018-05-03T05:28:23.902Z,55.9
2018-05-03T05:29:25.577Z,56.3
2018-05-03T05:30:27.222Z,56.9
2018-05-03T05:31:28.869Z,56.7
2018-05-03T05:32:30.529Z,57.0
2018-05-03T05:33:32.176Z,57.5
2018-05-03T05:34:33.833Z,57.5
2018-05-03T05:35:35.490Z,59.0
2018-05-03T05:36:37.144Z,57.7
2018-05-03T05:37:38.801Z,57.4
2018-05-03T05:38:40.519Z,59.0
2018-05-03T05:39:42.105Z,60.4
2018-05-03T05:40:43.769Z,58.9
2018-05-03T05:41:45.417Z,58.3
2018-05-03T05:42:47.103Z,57.3
2018-05-03T05:43:48.756Z,57.2
2018-05-03T05:44:50.403Z,57.2
2018-05-03T05:45:52.068Z,57.8
2018-05-03T05:46:53.725Z,60.4
2018-05-03T05:47:55.407Z,60.6
2018-05-03T05:48:57.054Z,60.6
2018-05-03T05:49:58.717Z,60.8
2018-05-03T05:51:00.428Z,61.6
2018-05-03T05:52:02.017Z,62.0
2018-05-03T05:53:03.670Z,62.6
2018-05-03T05:54:05.352Z,62.5
2018-05-03T05:55:07.011Z,64.5
2018-05-03T06:01:46.646Z,65.7
2018-05-03T06:02:48.205Z,65.4
2018-05-03T06:03:49.868Z,66.5
2018-05-03T06:04:51.520Z,67.1
2018-05-03T06:05:53.175Z,66.5
2018-05-03T06:06:54.832Z,66.1
2018-05-03T06:07:56.486Z,66.6
2018-05-03T06:08:58.157Z,66.9
2018-05-03T06:09:59.804Z,68.0
2018-05-03T06:11:01.464Z,69.6
2018-05-03T06:12:03.136Z,68.8
2018-05-03T06:13:04.791Z,69.7
2018-05-03T06:14:06.447Z,67.7
2018-05-03T06:15:08.119Z,66.7
2018-05-03T06:16:09.778Z,66.9
2018-05-03T06:17:11.471Z,67.1
2018-05-03T06:18:13.085Z,68.5
2018-05-03T06:19:14.738Z,70.1
2018-05-03T06:20:16.408Z,71.8
2018-05-03T06:21:18.056Z,73.3
2018-05-03T06:22:19.727Z,72.5
2018-05-03T06:23:21.372Z,74.4
2018-05-03T06:24:23.034Z,74.7
2018-05-03T06:25:24.687Z,73.2
2018-05-03T06:26:26.338Z,75.1
2018-05-03T06:27:28.016Z,77.0
2018-05-03T06:28:29.676Z,77.6
2018-05-03T06:29:31.332Z,78.3
2018-05-03T06:30:33.001Z,76.7
2018-05-03T06:31:34.650Z,76.2
2018-05-03T06:32:36.323Z,77.5
2018-05-03T06:33:37.977Z,79.6
2018-05-03T06:34:39.636Z,81.9
2018-05-03T06:35:41.293Z,85.0
2018-05-03T06:36:42.959Z,83.8
2018-05-03T06:37:44.609Z,82.9
2018-05-03T06:38:46.372Z,81.8
2018-05-03T06:39:47.910Z,82.2
2018-05-03T06:40:49.568Z,83.9
2018-05-03T06:41:51.241Z,84.9
2018-05-03T06:42:52.897Z,85.1
2018-05-03T06:43:54.562Z,85.2
2018-05-03T06:44:56.232Z,85.6
2018-05-03T06:45:57.888Z,87.2
2018-05-03T06:46:59.546Z,87.4
2018-05-03T06:48:01.220Z,88.7
2018-05-03T06:49:02.879Z,88.4
2018-05-03T06:50:04.544Z,88.6
2018-05-03T06:51:06.212Z,89.6
2018-05-03T06:52:07.926Z,90.0
2018-05-03T06:53:09.591Z,89.8
2018-05-03T06:54:11.258Z,91.6
2018-05-03T06:55:12.914Z,91.5
2018-05-03T06:56:14.584Z,90.2
2018-05-03T06:57:16.233Z,85.2
2018-05-03T06:58:17.895Z,85.5
2018-05-03T06:59:19.561Z,86.4
2018-05-03T07:00:21.212Z,87.4
2018-05-03T07:01:22.877Z,81.3
2018-05-03T07:02:24.539Z,81.7
2018-05-03T07:03:26.197Z,83.8
2018-05-03T07:04:27.949Z,85.4
2018-05-03T07:05:29.525Z,85.9
2018-05-03T07:06:31.212Z,86.3
2018-05-03T07:07:32.871Z,86.8
2018-05-03T07:08:34.542Z,87.5
2018-05-03T07:09:36.221Z,86.0
2018-05-03T07:10:37.882Z,84.3
2018-05-03T07:11:39.541Z,84.2
2018-05-03T07:12:41.213Z,85.3
2018-05-03T07:13:42.871Z,85.9
2018-05-03T07:14:44.548Z,90.1
2018-05-03T07:15:46.252Z,88.9
2018-05-03T07:16:47.923Z,89.9
2018-05-03T07:17:49.587Z,90.2
2018-05-03T07:18:51.257Z,90.2
2018-05-03T07:19:52.929Z,87.4
2018-05-03T07:20:54.590Z,87.7
2018-05-03T07:21:56.257Z,92.8
2018-05-03T07:22:57.920Z,91.8
2018-05-03T07:23:59.584Z,91.0
2018-05-03T07:25:01.259Z,90.9
2018-05-03T07:26:02.921Z,91.5
2018-05-03T07:27:04.589Z,92.9
2018-05-03T07:28:06.255Z,90.9
2018-05-03T07:29:07.917Z,91.5
2018-05-03T07:30:09.579Z,90.5
2018-05-03T07:31:11.245Z,92.0
2018-05-03T07:32:12.911Z,91.2
2018-05-03T07:33:14.574Z,90.8
2018-05-03T07:34:16.245Z,89.6
2018-05-03T07:35:17.923Z,90.3
2018-05-03T07:36:19.572Z,89.9
2018-05-03T07:37:21.236Z,89.0
2018-05-03T07:38:22.906Z,90.3
2018-05-03T07:39:24.565Z,90.2
2018-05-03T07:40:26.236Z,90.5
2018-05-03T07:41:27.915Z,90.2
2018-05-03T07:42:29.578Z,89.0
2018-05-03T07:43:31.248Z,84.1
2018-05-03T07:44:33.025Z,84.4
2018-05-03T07:45:34.576Z,81.4
2018-05-03T07:46:36.232Z,80.8
2018-05-03T07:47:37.910Z,77.0
2018-05-03T07:48:39.611Z,70.4
2018-05-03T07:49:41.210Z,67.6
2018-05-03T07:50:42.903Z,63.1
2018-05-03T07:51:44.547Z,63.8
2018-05-03T07:52:46.243Z,65.4
2018-05-03T07:53:47.924Z,66.9
2018-05-03T07:54:49.696Z,66.9
2018-05-03T07:55:51.324Z,66.7
2018-05-03T07:56:52.994Z,67.8
2018-05-03T07:57:54.663Z,66.0
2018-05-03T07:58:56.329Z,64.8
2018-05-03T07:59:58.005Z,66.4
2018-05-03T08:00:59.679Z,69.6
2018-05-03T08:02:01.357Z,67.7
2018-05-03T08:03:03.029Z,68.2
2018-05-03T08:04:04.693Z,69.2
2018-05-03T08:05:06.371Z,68.8
2018-05-03T08:06:08.055Z,69.3
2018-05-03T08:07:09.723Z,70.0
2018-05-03T08:08:11.398Z,72.3
2018-05-03T08:09:13.052Z,73.1
2018-05-03T08:10:14.740Z,70.2
2018-05-03T08:11:16.404Z,68.3
2018-05-03T08:12:18.082Z,70.7
2018-05-03T08:13:19.747Z,73.5
2018-05-03T08:14:21.412Z,73.8
2018-05-03T08:15:23.088Z,74.9
2018-05-03T08:16:24.759Z,76.9
2018-05-03T08:17:26.437Z,79.3
2018-05-03T08:18:28.106Z,76.9
2018-05-03T08:19:29.768Z,75.5
2018-05-03T08:20:31.436Z,73.4
2018-05-03T08:21:33.115Z,68.9
2018-05-03T08:22:34.768Z,66.5
2018-05-03T08:23:36.434Z,68.2
2018-05-03T08:24:38.101Z,66.9
2018-05-03T08:25:39.812Z,65.3
2018-05-03T08:26:41.483Z,62.3
2018-05-03T08:27:43.145Z,59.1
2018-05-03T08:28:44.812Z,59.9
2018-05-03T08:29:46.574Z,58.8
2018-05-03T08:30:48.252Z,59.6
2018-05-03T08:31:49.938Z,60.0
2018-05-03T08:32:51.602Z,58.0
2018-05-03T08:33:53.272Z,55.0
2018-05-03T08:34:54.946Z,52.0
2018-05-03T08:35:56.624Z,50.6
2018-05-03T08:36:58.288Z,49.2
2018-05-03T08:37:59.961Z,45.5
2018-05-03T08:39:01.651Z,45.2
2018-05-03T08:40:03.335Z,43.7
2018-05-03T08:41:05.005Z,44.3
2018-05-03T08:42:06.680Z,47.3
2018-05-03T08:43:08.359Z,48.8
2018-05-03T08:44:10.032Z,48.9
2018-05-03T08:45:11.709Z,49.7
2018-05-03T08:46:13.406Z,48.9
2018-05-03T08:47:15.060Z,49.1
2018-05-03T08:48:16.749Z,47.9
2018-05-03T08:49:18.408Z,43.5
2018-05-03T08:50:20.088Z,42.4
2018-05-03T08:51:21.768Z,39.4
2018-05-03T08:52:23.447Z,38.2
2018-05-03T08:53:25.124Z,38.7
2018-05-03T08:54:26.803Z,40.6
2018-05-03T08:55:28.546Z,39.2
2018-05-03T08:56:30.117Z,40.9
2018-05-03T08:57:31.782Z,41.7
2018-05-03T08:58:33.453Z,43.0
2018-05-03T08:59:35.145Z,41.1
2018-05-03T09:00:36.823Z,38.3
2018-05-03T09:01:38.503Z,36.4
2018-05-03T09:02:40.134Z,36.5
2018-05-03T09:03:41.802Z,39.1
2018-05-03T09:04:43.485Z,41.9
2018-05-03T09:05:45.157Z,44.5
2018-05-03T09:06:46.853Z,46.2
2018-05-03T09:07:48.637Z,46.8
2018-05-03T09:08:50.221Z,45.6
2018-05-03T09:09:51.880Z,42.7
2018-05-03T09:10:53.556Z,41.1
2018-05-03T09:11:55.230Z,44.9
2018-05-03T09:12:56.900Z,45.5
2018-05-03T09:13:58.573Z,46.8
2018-05-03T09:15:00.254Z,47.2
2018-05-03T09:16:01.988Z,47.7
2018-05-03T09:17:03.672Z,48.9
2018-05-03T09:18:05.342Z,50.1
2018-05-03T09:19:07.016Z,48.2
2018-05-03T09:20:08.688Z,48.8
2018-05-03T09:21:10.375Z,46.9
2018-05-03T09:22:12.039Z,45.8
2018-05-03T09:23:13.712Z,45.6
2018-05-03T09:24:15.382Z,45.3
2018-05-03T09:25:17.051Z,44.8
2018-05-03T09:26:18.716Z,43.8
2018-05-03T09:27:20.385Z,43.3
2018-05-03T09:28:22.058Z,43.1
2018-05-03T09:29:23.735Z,43.5
2018-05-03T09:30:25.411Z,42.0
2018-05-03T09:31:27.088Z,41.9
2018-05-03T09:32:28.844Z,40.2
2018-05-03T09:33:30.513Z,39.1
2018-05-03T09:34:32.196Z,39.1
2018-05-03T09:35:33.877Z,38.4
2018-05-03T09:36:35.548Z,37.3
2018-05-03T09:37:37.230Z,39.3
2018-05-03T09:38:38.892Z,40.8
2018-05-03T09:39:40.576Z,42.1
2018-05-03T09:40:42.267Z,41.2
2018-05-03T09:41:43.960Z,41.4
2018-05-03T09:42:45.635Z,39.4
2018-05-03T09:43:47.313Z,38.5
2018-05-03T09:44:49.059Z,36.9
2018-05-03T09:45:50.694Z,36.8
2018-05-03T09:46:52.368Z,36.6
2018-05-03T09:47:54.064Z,39.3
2018-05-03T09:48:55.748Z,37.3
2018-05-03T09:49:57.431Z,38.5
2018-05-03T09:50:59.109Z,39.7
2018-05-03T09:52:00.781Z,39.4
2018-05-03T09:53:02.551Z,40.0
2018-05-03T09:54:04.157Z,41.7
2018-05-03T09:55:05.840Z,44.6
2018-05-03T10:01:11.054Z,36.9
2018-05-03T10:02:12.728Z,36.8
2018-05-03T10:04:04.738Z,38.1
2018-05-03T10:05:06.412Z,38.6
2018-05-03T10:06:58.301Z,38.2
2018-05-03T10:07:59.963Z,37.7
2018-05-03T10:09:51.857Z,37.5
2018-05-03T10:10:53.533Z,40.1
2018-05-03T10:11:55.211Z,42.0
2018-05-03T10:12:56.892Z,40.5
2018-05-03T10:13:58.561Z,39.7
2018-05-03T10:15:00.237Z,39.3
2018-05-03T10:16:01.911Z,38.6
2018-05-03T10:17:03.596Z,37.4
2018-05-03T10:18:05.280Z,38.5
2018-05-03T10:19:06.940Z,40.8
2018-05-03T10:20:08.624Z,39.4
2018-05-03T10:21:10.308Z,38.2
2018-05-03T10:22:12.027Z,37.5
2018-05-03T10:23:13.699Z,39.4
2018-05-03T10:24:15.380Z,37.3
2018-05-03T10:25:17.061Z,37.2
2018-05-03T10:26:18.740Z,37.3
2018-05-03T10:27:20.446Z,40.1
2018-05-03T10:28:22.139Z,40.5
2018-05-03T10:29:23.809Z,41.4
2018-05-03T10:30:25.489Z,41.3
2018-05-03T10:31:27.159Z,40.6
2018-05-03T10:32:28.824Z,39.3
2018-05-03T10:33:30.502Z,39.7
2018-05-03T10:34:32.173Z,40.0
2018-05-03T10:35:33.850Z,39.3
2018-05-03T10:36:35.527Z,37.2
2018-05-03T10:37:37.283Z,37.0
2018-05-03T10:38:38.964Z,36.1
2018-05-03T10:39:40.639Z,34.8
2018-05-03T10:40:42.312Z,36.0
2018-05-03T10:41:43.988Z,36.1
2018-05-03T10:42:45.667Z,34.8
2018-05-03T10:43:47.930Z,34.5
2018-05-03T10:44:49.614Z,35.1
2018-05-03T10:45:51.302Z,34.9
2018-05-03T10:46:54.284Z,34.2
2018-05-03T10:47:55.949Z,32.6
2018-05-03T10:48:57.633Z,32.0
2018-05-03T10:49:59.582Z,32.4
2018-05-03T10:51:02.881Z,32.8
2018-05-03T10:52:04.556Z,34.6
2018-05-03T10:53:06.242Z,37.0
2018-05-03T10:54:07.918Z,36.6
2018-05-03T10:55:09.801Z,35.3
2018-05-03T10:56:12.602Z,33.7
2018-05-03T10:57:14.279Z,36.4
2018-05-03T10:58:15.949Z,36.0
2018-05-03T10:59:17.626Z,34.4
2018-05-03T11:00:19.311Z,36.6
2018-05-03T11:01:22.175Z,35.9
2018-05-03T11:02:24.207Z,32.3
2018-05-03T11:03:25.875Z,33.3
2018-05-03T11:04:27.562Z,33.3
2018-05-03T11:05:29.260Z,33.3
2018-05-03T11:06:31.945Z,34.1
2018-05-03T11:07:33.619Z,32.1
2018-05-03T11:08:35.292Z,30.9
2018-05-03T11:09:37.035Z,32.2
2018-05-03T11:10:38.940Z,31.4
2018-05-03T11:11:42.152Z,31.8
2018-05-03T11:12:43.842Z,31.6
2018-05-03T11:13:45.519Z,33.2
2018-05-03T11:14:48.449Z,32.8
2018-05-03T11:15:50.282Z,34.5
2018-05-03T11:16:51.958Z,37.0
2018-05-03T11:17:53.632Z,39.3
2018-05-03T11:18:55.299Z,38.4
2018-05-03T11:19:57.410Z,37.3
2018-05-03T11:20:59.713Z,37.8
2018-05-03T11:22:01.324Z,37.3
2018-05-03T11:23:02.990Z,37.2
2018-05-03T11:24:04.667Z,38.9
2018-05-03T11:25:06.381Z,37.5
2018-05-03T11:26:08.929Z,37.3
2018-05-03T11:27:11.328Z,35.9
2018-05-03T11:28:13.095Z,35.7
2018-05-03T11:29:14.780Z,35.6
2018-05-03T11:30:16.533Z,36.2
2018-05-03T11:31:18.205Z,33.7
2018-05-03T11:32:21.506Z,31.4
2018-05-03T11:33:23.232Z,31.1
2018-05-03T11:34:24.964Z,30.3
2018-05-03T11:35:28.032Z,30.0
2018-05-03T11:36:29.791Z,31.0
2018-05-03T11:37:31.564Z,32.1
2018-05-03T11:38:33.295Z,32.8
2018-05-03T11:39:35.052Z,31.5
2018-05-03T11:40:37.480Z,31.5
2018-05-03T11:41:40.718Z,32.2
2018-05-03T11:42:42.439Z,31.0
2018-05-03T11:43:44.107Z,29.5
2018-05-03T11:44:45.836Z,29.9
2018-05-03T11:45:48.865Z,29.6
2018-05-03T11:46:51.439Z,28.9
2018-05-03T11:47:53.143Z,29.4
2018-05-03T11:48:54.895Z,29.7
2018-05-03T11:49:56.676Z,33.7
2018-05-03T11:50:58.378Z,33.3
2018-05-03T11:52:00.059Z,32.2
2018-05-03T11:53:01.800Z,29.8
2018-05-03T11:54:05.792Z,29.6
2018-05-03T11:55:07.509Z,30.4
2018-05-03T11:56:09.282Z,31.1
2018-05-03T11:57:11.058Z,30.6
2018-05-03T11:58:12.787Z,33.4
2018-05-03T11:59:14.585Z,33.5
2018-05-03T12:00:16.273Z,34.1
2018-05-03T12:01:17.999Z,34.3
2018-05-03T12:02:19.743Z,37.2
2018-05-03T12:03:21.463Z,37.5
2018-05-03T12:04:23.425Z,36.4
2018-05-03T12:05:25.151Z,35.4
2018-05-03T12:06:26.901Z,34.4
2018-05-03T12:07:28.727Z,32.6
2018-05-03T12:08:30.525Z,34.3
2018-05-03T12:09:32.266Z,35.4
2018-05-03T12:10:33.991Z,36.3
2018-05-03T12:11:35.755Z,37.1
2018-05-03T12:12:37.517Z,37.2
2018-05-03T12:13:39.272Z,34.8
2018-05-03T12:14:41.016Z,34.9
2018-05-03T12:15:42.758Z,35.1
2018-05-03T12:16:44.594Z,33.4
2018-05-03T12:17:46.405Z,34.2
2018-05-03T12:18:48.136Z,33.7
2018-05-03T12:19:49.887Z,33.2
2018-05-03T12:20:51.569Z,33.1
2018-05-03T12:21:53.266Z,32.0
2018-05-03T12:22:54.953Z,32.6
2018-05-03T12:23:56.642Z,31.1
2018-05-03T12:24:58.328Z,31.3
2018-05-03T12:26:00.025Z,29.8
2018-05-03T12:27:01.691Z,28.8
2018-05-03T12:28:03.365Z,27.9
2018-05-03T12:29:05.050Z,27.0
2018-05-03T12:30:06.944Z,28.3
2018-05-03T12:31:08.650Z,28.0
2018-05-03T12:32:10.354Z,29.9
2018-05-03T12:33:12.083Z,29.4
2018-05-03T12:34:13.787Z,29.6
2018-05-03T12:35:15.510Z,31.1
2018-05-03T12:36:17.256Z,31.1
2018-05-03T12:37:19.008Z,32.0
2018-05-03T12:38:20.814Z,33.4
2018-05-03T12:39:22.575Z,32.9
2018-05-03T12:40:24.328Z,34.2
2018-05-03T12:41:26.083Z,34.2
2018-05-03T12:42:27.786Z,33.6
2018-05-03T12:43:29.549Z,32.4
2018-05-03T12:44:31.271Z,33.9
2018-05-03T12:45:33.022Z,33.7
2018-05-03T12:46:34.790Z,33.9
2018-05-03T12:47:36.575Z,34.4
2018-05-03T12:48:38.273Z,34.5
2018-05-03T12:49:40.047Z,34.5
2018-05-03T12:50:41.815Z,34.4
2018-05-03T12:51:43.691Z,33.3
2018-05-03T12:52:45.419Z,33.7
2018-05-03T12:53:47.196Z,35.0
2018-05-03T12:54:48.931Z,34.8
2018-05-03T12:55:50.671Z,34.6
2018-05-03T12:56:52.371Z,34.3
2018-05-03T12:57:54.050Z,35.4
2018-05-03T12:58:55.765Z,34.4
2018-05-03T12:59:57.520Z,34.2
2018-05-03T13:00:59.303Z,34.7
2018-05-03T13:02:01.023Z,32.3
2018-05-03T13:03:02.755Z,31.2
2018-05-03T13:04:04.457Z,30.9
2018-05-03T13:05:06.142Z,32.2
2018-05-03T13:06:07.829Z,31.5
2018-05-03T13:07:09.541Z,31.9
2018-05-03T13:08:11.247Z,31.3
2018-05-03T13:09:12.947Z,31.7
2018-05-03T13:10:15.695Z,33.2
2018-05-03T13:11:17.412Z,33.1
2018-05-03T13:12:21.046Z,32.4
2018-05-03T13:13:22.847Z,33.1
2018-05-03T13:14:24.622Z,34.2
2018-05-03T13:15:26.349Z,32.8
2018-05-03T13:16:28.146Z,32.9
2018-05-03T13:17:29.864Z,33.2
2018-05-03T13:18:31.635Z,35.6
2018-05-03T13:19:33.390Z,36.5
2018-05-03T13:20:35.249Z,36.0
2018-05-03T13:21:36.988Z,36.3
2018-05-03T13:22:38.723Z,37.0
2018-05-03T13:23:40.453Z,37.7
2018-05-03T13:24:42.138Z,37.8
2018-05-03T13:25:43.880Z,38.3
2018-05-03T13:26:45.577Z,37.8
2018-05-03T13:27:48.458Z,37.5
2018-05-03T13:28:50.179Z,36.9
2018-05-03T13:29:51.962Z,36.5
2018-05-03T13:30:53.701Z,37.2
2018-05-03T13:31:55.436Z,37.0
2018-05-03T13:32:57.437Z,36.4
2018-05-03T13:33:59.157Z,35.8
2018-05-03T13:35:00.871Z,34.4
2018-05-03T13:36:02.583Z,34.9
2018-05-03T13:37:04.300Z,32.9
2018-05-03T13:38:06.079Z,33.7
2018-05-03T13:39:07.838Z,35.1
2018-05-03T13:40:09.572Z,34.7
2018-05-03T13:41:11.384Z,35.1
2018-05-03T13:42:12.986Z,34.8
2018-05-03T13:43:14.795Z,33.1
2018-05-03T13:44:16.394Z,32.6
2018-05-03T13:45:18.095Z,32.3
2018-05-03T13:46:19.846Z,32.4
2018-05-03T13:47:21.623Z,32.2
2018-05-03T13:48:23.374Z,32.9
2018-05-03T13:49:25.131Z,33.2
2018-05-03T13:50:26.847Z,34.0
2018-05-03T13:51:28.550Z,34.8
2018-05-03T13:52:30.229Z,34.5
2018-05-03T13:53:31.908Z,35.4
2018-05-03T13:54:33.588Z,36.5
2018-05-03T13:55:35.261Z,35.9
2018-05-03T14:02:00.243Z,34.2
2018-05-03T14:03:01.922Z,33.2
2018-05-03T14:04:03.607Z,32.3
2018-05-03T14:05:05.279Z,34.1
2018-05-03T14:06:06.944Z,34.3
2018-05-03T14:07:08.720Z,34.2
2018-05-03T14:08:10.288Z,35.2
2018-05-03T14:09:11.966Z,35.8
2018-05-03T14:10:13.637Z,34.9